Time;durP1;ratioP1;P1;durP2;ratioP2;P2;SDS_P1;SDS_P2;PMS_P1;PMS_P2;Temp;Humidity;BMP_temperature;BMP_pressure;BME280_temperature;BME280_humidity;BME280_pressure;Samples;Min_cycle;Max_cycle;Signal;HPM_P1;HPM_P2
2022/08/09 00:01:28;;;;;;;;;;;27.20;75.00;;;;;;5054351;28;19947;-61
2022/08/09 00:04:16;;;;;;;;;;;27.20;75.00;;;;;;5055502;28;19932;-61
2022/08/09 00:07:02;;;;;;;;;;;27.20;75.10;;;;;;5052460;28;19928;-58
2022/08/09 00:09:33;;;;;;;;;;;27.20;75.10;;;;;;5037535;28;19936;-58
2022/08/09 00:12:03;;;;;;;;;;;27.20;75.10;;;;;;5056720;28;19924;-60
2022/08/09 00:14:31;;;;;;;;;;;27.20;75.20;;;;;;5063283;28;19929;-59
2022/08/09 00:17:04;;;;;;;;;;;27.20;75.20;;;;;;5067846;28;20426;-58
2022/08/09 00:19:31;;;;;;;;;;;27.20;75.20;;;;;;5049941;28;19933;-57
2022/08/09 00:22:00;;;;;;;;;;;27.20;75.20;;;;;;5048041;28;19935;-59
2022/08/09 00:24:30;;;;;;;;;;;27.20;75.20;;;;;;5050466;28;19925;-59
2022/08/09 00:26:58;;;;;;;;;;;27.20;75.20;;;;;;5049972;28;19935;-60
2022/08/09 00:29:27;;;;;;;;;;;27.20;75.20;;;;;;5052330;28;19951;-59
2022/08/09 00:32:14;;;;;;;;;;;27.20;75.30;;;;;;5065097;28;19928;-58
2022/08/09 00:34:54;;;;;;;;;;;27.10;75.40;;;;;;5057999;28;19943;-60
2022/08/09 00:37:21;;;;;;;;;;;27.10;75.30;;;;;;5050060;28;20423;-58
2022/08/09 00:39:50;;;;;;;;;;;27.10;75.30;;;;;;5060324;28;19929;-58
2022/08/09 00:42:37;;;;;;;;;;;27.10;75.40;;;;;;5047897;28;20450;-56
2022/08/09 00:45:24;;;;;;;;;;;27.10;75.40;;;;;;5036877;28;19933;-59
2022/08/09 00:47:51;;;;;;;;;;;27.10;75.40;;;;;;5064322;28;19951;-57
2022/08/09 00:50:22;;;;;;;;;;;27.10;75.40;;;;;;5051186;28;19932;-58
2022/08/09 00:52:51;;;;;;;;;;;27.10;75.40;;;;;;5062826;28;20414;-57
2022/08/09 00:55:20;;;;;;;;;;;27.10;75.50;;;;;;5053125;28;19932;-59
2022/08/09 00:58:07;;;;;;;;;;;27.10;75.50;;;;;;5057196;28;19935;-59
2022/08/09 01:00:37;;;;;;;;;;;27.10;75.50;;;;;;5023168;28;19943;-58
2022/08/09 01:03:18;;;;;;;;;;;27.10;75.50;;;;;;5047197;28;20670;-59
2022/08/09 01:05:54;;;;;;;;;;;27.10;75.50;;;;;;5045789;28;19928;-57
2022/08/09 01:08:42;;;;;;;;;;;27.10;75.60;;;;;;5047032;28;19932;-60
2022/08/09 01:11:22;;;;;;;;;;;27.10;75.60;;;;;;5045701;28;19932;-57
2022/08/09 01:13:54;;;;;;;;;;;27.10;75.60;;;;;;5048985;28;19929;-58
2022/08/09 01:16:31;;;;;;;;;;;27.10;75.60;;;;;;5042187;28;19933;-58
2022/08/09 01:19:01;;;;;;;;;;;27.10;75.70;;;;;;5030927;28;20404;-59
2022/08/09 01:21:41;;;;;;;;;;;27.10;75.70;;;;;;5048396;28;19929;-59
2022/08/09 01:24:33;;;;;;;;;;;27.10;75.70;;;;;;5055352;28;19936;-60
2022/08/09 01:27:00;;;;;;;;;;;27.10;75.70;;;;;;5044004;28;19935;-57
2022/08/09 01:29:36;;;;;;;;;;;27.10;75.90;;;;;;5048355;28;19985;-59
2022/08/09 01:32:22;;;;;;;;;;;27.10;75.80;;;;;;5048983;28;19932;-57
2022/08/09 01:35:02;;;;;;;;;;;27.10;75.80;;;;;;5048569;28;19936;-55
2022/08/09 01:37:44;;;;;;;;;;;27.10;75.80;;;;;;5049335;28;19932;-56
2022/08/09 01:40:32;;;;;;;;;;;27.10;75.80;;;;;;5046375;28;20336;-59
2022/08/09 01:43:00;;;;;;;;;;;27.10;75.80;;;;;;5046515;28;19929;-57
2022/08/09 01:45:27;;;;;;;;;;;27.10;75.90;;;;;;5056976;28;19944;-56
2022/08/09 01:47:56;;;;;;;;;;;27.10;75.90;;;;;;5052775;28;19936;-58
2022/08/09 01:50:25;;;;;;;;;;;27.10;75.90;;;;;;5050295;28;19931;-57
2022/08/09 01:53:03;;;;;;;;;;;27.10;75.90;;;;;;5057266;28;20071;-58
2022/08/09 01:55:46;;;;;;;;;;;27.00;75.80;;;;;;5030234;28;20412;-58
2022/08/09 01:58:14;;;;;;;;;;;27.10;76.00;;;;;;5059466;28;20399;-60
2022/08/09 02:00:44;;;;;;;;;;;27.10;76.00;;;;;;5029280;28;20409;-59
2022/08/09 02:03:14;;;;;;;;;;;27.10;76.00;;;;;;5053620;28;19943;-59
2022/08/09 02:05:43;;;;;;;;;;;27.10;76.00;;;;;;5040557;28;19929;-60
2022/08/09 02:08:31;;;;;;;;;;;27.10;76.00;;;;;;5057557;28;19929;-59
2022/08/09 02:11:18;;;;;;;;;;;27.00;76.00;;;;;;5049352;28;19932;-58
2022/08/09 02:13:46;;;;;;;;;;;27.00;76.10;;;;;;5058587;28;19945;-58
2022/08/09 02:16:35;;;;;;;;;;;27.10;76.10;;;;;;5053213;28;19950;-57
2022/08/09 02:19:23;;;;;;;;;;;27.00;76.10;;;;;;5045857;28;19929;-57
2022/08/09 02:22:03;;;;;;;;;;;27.00;76.10;;;;;;5057705;28;19936;-59
2022/08/09 02:24:34;;;;;;;;;;;27.00;76.10;;;;;;5060397;28;19936;-57
2022/08/09 02:27:04;;;;;;;;;;;27.00;76.10;;;;;;5050214;28;20587;-57
2022/08/09 02:29:36;;;;;;;;;;;27.00;76.20;;;;;;5052542;28;20312;-57
2022/08/09 02:32:06;;;;;;;;;;;27.00;76.20;;;;;;5036899;28;19932;-57
2022/08/09 02:34:35;;;;;;;;;;;27.00;76.20;;;;;;5051890;28;19938;-59
2022/08/09 02:37:20;;;;;;;;;;;27.00;76.30;;;;;;5054368;28;19936;-59
2022/08/09 02:39:56;;;;;;;;;;;27.00;76.30;;;;;;5037627;28;20400;-59
2022/08/09 02:42:39;;;;;;;;;;;27.00;76.30;;;;;;5019545;28;19936;-60
2022/08/09 02:45:10;;;;;;;;;;;27.00;77.00;;;;;;5048497;28;19929;-57
2022/08/09 02:47:39;;;;;;;;;;;27.00;76.40;;;;;;5051299;28;19929;-59
2022/08/09 02:50:27;;;;;;;;;;;27.00;76.40;;;;;;5057913;28;19928;-57
2022/08/09 02:53:03;;;;;;;;;;;27.00;76.50;;;;;;5045664;28;19936;-58
2022/08/09 02:55:32;;;;;;;;;;;27.00;76.50;;;;;;5056649;28;20400;-58
2022/08/09 02:58:15;;;;;;;;;;;27.00;76.60;;;;;;5055831;28;19935;-57
2022/08/09 03:01:02;;;;;;;;;;;27.00;76.60;;;;;;5046220;28;19937;-59
2022/08/09 03:03:33;;;;;;;;;;;27.00;76.60;;;;;;5048521;28;19936;-59
2022/08/09 03:06:21;;;;;;;;;;;27.00;76.70;;;;;;5049265;28;19959;-58
2022/08/09 03:08:51;;;;;;;;;;;27.00;76.70;;;;;;5057218;28;19928;-59
2022/08/09 03:11:20;;;;;;;;;;;27.00;76.70;;;;;;5061794;28;19936;-59
2022/08/09 03:14:08;;;;;;;;;;;27.00;76.80;;;;;;5057349;28;20312;-62
2022/08/09 03:16:36;;;;;;;;;;;27.00;76.70;;;;;;5057421;28;19932;-60
2022/08/09 03:19:11;;;;;;;;;;;27.00;76.70;;;;;;5047727;28;19935;-60
2022/08/09 03:21:58;;;;;;;;;;;27.00;76.70;;;;;;5052310;28;19940;-60
2022/08/09 03:24:29;;;;;;;;;;;27.00;76.80;;;;;;5049772;28;19940;-59
2022/08/09 03:27:16;;;;;;;;;;;27.00;76.80;;;;;;5026846;28;19935;-58
2022/08/09 03:29:49;;;;;;;;;;;27.00;76.90;;;;;;5053449;28;19926;-58
2022/08/09 03:32:30;;;;;;;;;;;27.00;76.90;;;;;;5049134;28;19936;-60
2022/08/09 03:34:59;;;;;;;;;;;27.00;76.90;;;;;;5062384;28;20289;-57
2022/08/09 03:37:27;;;;;;;;;;;27.00;77.00;;;;;;5053930;28;19929;-59
2022/08/09 03:40:14;;;;;;;;;;;27.00;77.10;;;;;;5061089;28;19928;-58
2022/08/09 03:42:44;;;;;;;;;;;27.00;77.10;;;;;;5053600;28;19999;-59
2022/08/09 03:45:13;;;;;;;;;;;27.00;77.10;;;;;;5056535;28;19936;-59
2022/08/09 03:47:42;;;;;;;;;;;26.90;77.10;;;;;;5068484;28;20037;-60
2022/08/09 03:50:13;;;;;;;;;;;26.90;77.20;;;;;;5056617;28;19936;-60
2022/08/09 03:52:55;;;;;;;;;;;26.90;77.20;;;;;;5057731;28;19932;-62
2022/08/09 03:55:23;;;;;;;;;;;26.90;77.30;;;;;;5051847;28;19939;-56
2022/08/09 03:57:52;;;;;;;;;;;26.90;77.30;;;;;;5050794;28;19936;-60
2022/08/09 04:00:37;;;;;;;;;;;26.90;77.30;;;;;;5047018;28;20396;-60
2022/08/09 04:03:05;;;;;;;;;;;26.90;77.30;;;;;;5061578;28;20427;-59
2022/08/09 04:05:32;;;;;;;;;;;26.90;77.30;;;;;;5041892;28;19935;-60
2022/08/09 04:08:06;;;;;;;;;;;26.90;77.20;;;;;;5064907;28;19956;-58
2022/08/09 04:10:34;;;;;;;;;;;26.90;77.40;;;;;;5024552;28;19943;-59
2022/08/09 04:13:08;;;;;;;;;;;26.90;77.30;;;;;;5058918;28;19928;-56
2022/08/09 04:15:38;;;;;;;;;;;26.90;77.30;;;;;;5049733;28;20553;-59
2022/08/09 04:18:25;;;;;;;;;;;26.90;77.30;;;;;;5036809;28;19929;-60
2022/08/09 04:20:54;;;;;;;;;;;26.90;77.30;;;;;;5045899;28;20304;-61
2022/08/09 04:23:22;;;;;;;;;;;26.90;77.30;;;;;;5056260;28;20403;-60
2022/08/09 04:25:52;;;;;;;;;;;26.90;77.20;;;;;;5054298;28;19935;-59
2022/08/09 04:28:22;;;;;;;;;;;26.90;77.30;;;;;;5060138;28;19933;-60
2022/08/09 04:31:03;;;;;;;;;;;26.90;77.30;;;;;;5054412;28;19935;-59
2022/08/09 04:33:36;;;;;;;;;;;26.90;77.30;;;;;;5058009;28;19943;-58
2022/08/09 04:36:20;;;;;;;;;;;26.90;77.20;;;;;;5068311;28;20434;-60
2022/08/09 04:38:49;;;;;;;;;;;26.90;77.20;;;;;;5054275;28;19939;-60
2022/08/09 04:41:16;;;;;;;;;;;26.90;77.10;;;;;;5062522;28;19929;-59
2022/08/09 04:43:44;;;;;;;;;;;26.90;77.30;;;;;;5060368;28;19936;-60
2022/08/09 04:46:31;;;;;;;;;;;26.90;77.40;;;;;;5059402;28;19929;-61
2022/08/09 04:49:18;;;;;;;;;;;26.90;77.40;;;;;;5050807;28;19952;-59
2022/08/09 04:52:05;;;;;;;;;;;26.90;77.50;;;;;;5045208;28;19925;-60
2022/08/09 04:54:33;;;;;;;;;;;26.90;77.40;;;;;;5051650;28;19925;-61
2022/08/09 04:57:00;;;;;;;;;;;26.80;77.40;;;;;;5053055;28;19924;-60
2022/08/09 04:59:30;;;;;;;;;;;26.90;77.50;;;;;;5047263;28;19931;-60
2022/08/09 05:01:57;;;;;;;;;;;26.90;77.60;;;;;;5063422;28;19935;-60
2022/08/09 05:04:29;;;;;;;;;;;26.80;77.50;;;;;;5037764;28;20335;-61
2022/08/09 05:06:57;;;;;;;;;;;26.80;77.50;;;;;;5051496;28;19935;-60
2022/08/09 05:09:24;;;;;;;;;;;26.80;77.60;;;;;;5050381;28;19929;-60
2022/08/09 05:12:12;;;;;;;;;;;26.80;77.50;;;;;;5051669;28;19940;-59
2022/08/09 05:14:41;;;;;;;;;;;26.80;77.50;;;;;;5053415;28;19928;-62
2022/08/09 05:17:08;;;;;;;;;;;26.90;77.70;;;;;;5060920;28;19936;-59
2022/08/09 05:19:56;;;;;;;;;;;26.80;77.70;;;;;;5047818;28;19929;-59
2022/08/09 05:22:24;;;;;;;;;;;26.80;77.80;;;;;;5049915;28;20003;-60
2022/08/09 05:25:11;;;;;;;;;;;26.80;77.30;;;;;;5050125;28;20427;-57
2022/08/09 05:27:41;;;;;;;;;;;26.80;76.50;;;;;;5051954;28;20399;-60
2022/08/09 05:30:14;;;;;;;;;;;26.80;76.00;;;;;;5048779;28;20408;-59
2022/08/09 05:32:45;;;;;;;;;;;26.80;75.20;;;;;;5051793;28;20388;-61
2022/08/09 05:35:19;;;;;;;;;;;26.80;74.70;;;;;;5048174;28;19948;-59
2022/08/09 05:37:49;;;;;;;;;;;26.80;74.30;;;;;;5048214;28;19924;-62
2022/08/09 05:40:17;;;;;;;;;;;26.60;70.20;;;;;;5062278;28;19929;-61
2022/08/09 05:42:45;;;;;;;;;;;26.40;68.90;;;;;;5053001;28;19929;-62
2022/08/09 05:45:13;;;;;;;;;;;26.20;68.60;;;;;;5047129;28;19936;-61
2022/08/09 05:47:42;;;;;;;;;;;26.10;68.60;;;;;;5045918;28;19928;-60
2022/08/09 05:50:18;;;;;;;;;;;26.00;68.70;;;;;;5054280;28;19933;-65
2022/08/09 05:53:06;;;;;;;;;;;25.90;68.80;;;;;;5043812;28;19935;-61
2022/08/09 05:55:53;;;;;;;;;;;25.90;69.00;;;;;;5047241;28;20601;-61
2022/08/09 05:58:20;;;;;;;;;;;25.80;69.40;;;;;;5052433;28;19929;-60
2022/08/09 06:00:50;;;;;;;;;;;25.80;69.20;;;;;;5061563;28;19929;-61
2022/08/09 06:03:17;;;;;;;;;;;25.80;68.80;;;;;;5068612;28;19925;-65
2022/08/09 06:05:46;;;;;;;;;;;25.70;69.00;;;;;;5068427;28;19928;-58
2022/08/09 06:08:32;;;;;;;;;;;25.60;68.90;;;;;;5057407;28;19928;-63
2022/08/09 06:11:00;;;;;;;;;;;25.50;68.70;;;;;;5048511;28;19933;-54
2022/08/09 06:13:27;;;;;;;;;;;25.50;69.10;;;;;;5027240;28;19936;-58
2022/08/09 06:16:03;;;;;;;;;;;25.50;68.80;;;;;;5055871;28;19925;-58
2022/08/09 06:18:31;;;;;;;;;;;25.60;69.20;;;;;;5055863;28;20941;-58
2022/08/09 06:21:00;;;;;;;;;;;25.60;69.20;;;;;;5044141;28;19933;-60
2022/08/09 06:23:28;;;;;;;;;;;25.60;69.60;;;;;;5031276;28;19929;-56
2022/08/09 06:26:15;;;;;;;;;;;25.60;69.20;;;;;;5047864;28;19941;-57
2022/08/09 06:28:51;;;;;;;;;;;25.40;68.70;;;;;;5033956;28;19935;-53
2022/08/09 06:31:32;;;;;;;;;;;25.40;68.60;;;;;;5047042;28;19928;-59
2022/08/09 06:34:19;;;;;;;;;;;25.30;68.60;;;;;;5045641;28;20884;-59
2022/08/09 06:36:51;;;;;;;;;;;25.30;68.60;;;;;;5052867;28;20315;-56
2022/08/09 06:39:31;;;;;;;;;;;25.30;68.40;;;;;;5060265;28;20607;-56
2022/08/09 06:42:19;;;;;;;;;;;25.30;68.20;;;;;;5046786;28;19935;-57
2022/08/09 06:44:55;;;;;;;;;;;25.40;68.30;;;;;;5047196;28;19928;-58
2022/08/09 06:47:23;;;;;;;;;;;25.50;68.20;;;;;;5059917;28;20351;-59
2022/08/09 06:49:56;;;;;;;;;;;25.40;67.80;;;;;;5056995;28;19940;-58
2022/08/09 06:52:50;;;;;;;;;;;25.30;68.00;;;;;;5059816;28;20407;-58
2022/08/09 06:55:22;;;;;;;;;;;25.40;68.20;;;;;;5053261;28;19928;-57
2022/08/09 06:57:50;;;;;;;;;;;25.40;67.50;;;;;;5066704;28;19932;-55
2022/08/09 07:00:30;;;;;;;;;;;25.00;66.80;;;;;;5048032;28;20422;-56
2022/08/09 07:03:17;;;;;;;;;;;25.00;67.60;;;;;;5053097;28;19947;-58
2022/08/09 07:05:44;;;;;;;;;;;25.10;67.50;;;;;;5054733;28;19948;-58
2022/08/09 07:08:30;;;;;;;;;;;25.10;66.90;;;;;;5059616;28;19947;-58
2022/08/09 07:10:58;;;;;;;;;;;25.30;67.40;;;;;;5050039;28;19929;-57
2022/08/09 07:13:25;;;;;;;;;;;25.40;67.20;;;;;;5051183;28;19948;-56
2022/08/09 07:15:56;;;;;;;;;;;25.20;66.70;;;;;;5054215;28;19924;-56
2022/08/09 07:18:43;;;;;;;;;;;25.10;66.50;;;;;;5049108;28;19928;-60
2022/08/09 07:21:13;;;;;;;;;;;24.80;66.80;;;;;;5053443;28;19929;-58
2022/08/09 07:23:41;;;;;;;;;;;24.90;67.40;;;;;;5041651;28;19933;-57
2022/08/09 07:26:24;;;;;;;;;;;25.00;67.50;;;;;;5048892;28;19929;-63
2022/08/09 07:28:51;;;;;;;;;;;25.20;67.50;;;;;;5054227;28;19932;-58
2022/08/09 07:31:38;;;;;;;;;;;25.20;67.10;;;;;;5041742;28;19944;-60
2022/08/09 07:34:14;;;;;;;;;;;25.20;67.40;;;;;;5048935;28;19940;-67
2022/08/09 07:36:47;;;;;;;;;;;25.30;68.10;;;;;;5048004;28;19928;-61
2022/08/09 07:39:15;;;;;;;;;;;25.40;67.60;;;;;;5043711;28;19928;-62
2022/08/09 07:42:03;;;;;;;;;;;25.50;68.40;;;;;;5048405;28;20316;-63
2022/08/09 07:44:31;;;;;;;;;;;25.60;69.90;;;;;;5029243;28;20978;-62
2022/08/09 07:47:18;;;;;;;;;;;25.70;69.80;;;;;;5037827;28;19925;-60
2022/08/09 07:49:47;;;;;;;;;;;25.80;70.40;;;;;;5049818;28;19928;-59
2022/08/09 07:52:34;;;;;;;;;;;25.80;69.40;;;;;;5047892;28;19940;-58
2022/08/09 07:55:02;;;;;;;;;;;25.70;68.10;;;;;;5049055;28;19929;-58
2022/08/09 07:57:35;;;;;;;;;;;25.50;68.10;;;;;;5054092;28;19929;-56
2022/08/09 08:00:05;;;;;;;;;;;25.40;68.50;;;;;;5051071;28;20597;-58
2022/08/09 08:02:41;;;;;;;;;;;25.60;68.80;;;;;;5042855;28;20423;-56
2022/08/09 08:05:15;;;;;;;;;;;25.60;68.90;;;;;;5046783;28;19929;-61
2022/08/09 08:07:45;;;;;;;;;;;25.70;68.00;;;;;;5043494;28;19939;-58
2022/08/09 08:10:32;;;;;;;;;;;25.60;68.40;;;;;;5045996;28;19995;-57
2022/08/09 08:13:01;;;;;;;;;;;25.60;68.30;;;;;;5047659;28;20301;-58
2022/08/09 08:15:30;;;;;;;;;;;25.70;68.90;;;;;;5047619;28;19947;-57
2022/08/09 08:18:03;;;;;;;;;;;25.70;68.10;;;;;;5048041;28;19937;-57
2022/08/09 08:20:31;;;;;;;;;;;25.70;68.50;;;;;;5027395;28;20292;-62
2022/08/09 08:23:00;;;;;;;;;;;25.80;68.60;;;;;;5046333;28;21523;-58
2022/08/09 08:25:43;;;;;;;;;;;25.80;69.50;;;;;;5054466;28;19955;-62
2022/08/09 08:28:16;;;;;;;;;;;25.90;72.00;;;;;;5046541;28;19933;-58
2022/08/09 08:30:52;;;;;;;;;;;26.00;71.50;;;;;;5051912;28;19944;-59
2022/08/09 08:33:21;;;;;;;;;;;26.00;71.10;;;;;;5048157;28;20296;-57
2022/08/09 08:35:51;;;;;;;;;;;26.00;71.40;;;;;;5042189;28;19932;-59
2022/08/09 08:38:26;;;;;;;;;;;26.10;70.20;;;;;;5054689;28;19934;-57
2022/08/09 08:40:55;;;;;;;;;;;26.00;69.80;;;;;;5044965;28;19931;-58
2022/08/09 08:43:22;;;;;;;;;;;26.10;70.10;;;;;;5044088;28;19983;-59
2022/08/09 08:45:53;;;;;;;;;;;26.10;69.60;;;;;;5033617;28;19929;-60
2022/08/09 08:48:36;;;;;;;;;;;26.00;70.60;;;;;;5046633;28;19932;-59
2022/08/09 08:51:04;;;;;;;;;;;26.00;72.00;;;;;;5041956;28;19928;-58
2022/08/09 08:53:32;;;;;;;;;;;26.10;72.80;;;;;;5053048;28;19929;-60
2022/08/09 08:56:04;;;;;;;;;;;26.20;73.90;;;;;;5054121;28;19925;-58
2022/08/09 08:58:34;;;;;;;;;;;26.30;73.90;;;;;;5052494;28;19935;-59
2022/08/09 09:01:02;;;;;;;;;;;26.30;74.10;;;;;;5050420;28;19935;-59
2022/08/09 09:03:47;;;;;;;;;;;26.40;74.10;;;;;;5047269;28;19929;-60
2022/08/09 09:06:18;;;;;;;;;;;26.30;73.80;;;;;;5042645;28;19929;-58
2022/08/09 09:08:45;;;;;;;;;;;26.40;73.80;;;;;;5052652;28;19932;-57
2022/08/09 09:11:19;;;;;;;;;;;26.50;74.00;;;;;;5035058;28;19929;-61
2022/08/09 09:13:47;;;;;;;;;;;26.50;74.10;;;;;;5048452;28;19928;-58
2022/08/09 09:16:31;;;;;;;;;;;26.50;74.30;;;;;;5050976;28;19925;-58
2022/08/09 09:19:02;;;;;;;;;;;26.50;74.80;;;;;;5048420;28;19929;-61
2022/08/09 09:21:57;;;;;;;;;;;26.60;75.20;;;;;;5045885;28;19936;-59
2022/08/09 09:24:28;;;;;;;;;;;26.60;75.20;;;;;;5046293;28;19925;-62
2022/08/09 09:26:56;;;;;;;;;;;26.50;75.30;;;;;;5046902;28;19924;-58
2022/08/09 09:29:28;;;;;;;;;;;26.50;75.20;;;;;;5047718;28;19951;-60
2022/08/09 09:32:22;;;;;;;;;;;26.50;75.20;;;;;;5046735;28;19925;-61
2022/08/09 09:35:01;;;;;;;;;;;26.60;75.40;;;;;;5040699;28;20316;-58
2022/08/09 09:37:29;;;;;;;;;;;26.60;75.40;;;;;;5044024;28;19932;-58
2022/08/09 09:39:58;;;;;;;;;;;26.60;75.40;;;;;;5062315;28;19935;-57
2022/08/09 09:42:28;;;;;;;;;;;26.60;75.30;;;;;;5065957;28;19928;-57
2022/08/09 09:44:58;;;;;;;;;;;26.60;75.30;;;;;;5064508;28;20400;-58
2022/08/09 09:47:26;;;;;;;;;;;26.60;75.30;;;;;;5054538;28;19929;-60
2022/08/09 09:49:56;;;;;;;;;;;26.60;75.30;;;;;;5060912;28;19932;-59
2022/08/09 09:52:52;;;;;;;;;;;26.60;75.30;;;;;;5033092;28;19933;-56
2022/08/09 09:55:23;;;;;;;;;;;26.60;75.30;;;;;;5046730;28;20402;-56
2022/08/09 09:58:01;;;;;;;;;;;26.60;75.60;;;;;;5045671;28;20344;-57
2022/08/09 10:00:50;;;;;;;;;;;26.60;75.60;;;;;;5029932;28;19935;-58
2022/08/09 10:03:40;;;;;;;;;;;26.60;75.80;;;;;;5046229;28;19932;-59
2022/08/09 10:06:12;;;;;;;;;;;26.60;76.20;;;;;;5046120;28;19948;-58
2022/08/09 10:08:40;;;;;;;;;;;26.60;75.90;;;;;;5042869;28;20639;-55
2022/08/09 10:11:31;;;;;;;;;;;26.60;75.80;;;;;;5044205;28;20104;-60
2022/08/09 10:14:29;;;;;;;;;;;26.60;75.60;;;;;;5028990;28;20235;-53
2022/08/09 10:17:10;;;;;;;;;;;26.60;75.30;;;;;;5044182;28;19932;-58
2022/08/09 10:19:57;;;;;;;;;;;26.60;75.20;;;;;;5044445;28;19928;-58
2022/08/09 10:22:29;;;;;;;;;;;26.60;75.10;;;;;;5044504;28;19925;-55
2022/08/09 10:25:02;;;;;;;;;;;26.60;75.60;;;;;;5050170;28;20312;-55
2022/08/09 10:27:43;;;;;;;;;;;26.70;75.50;;;;;;5048486;28;20388;-57
2022/08/09 10:30:26;;;;;;;;;;;26.60;75.10;;;;;;5047881;28;19940;-57
2022/08/09 10:33:14;;;;;;;;;;;26.70;75.10;;;;;;5033388;28;19925;-55
2022/08/09 10:36:05;;;;;;;;;;;26.60;75.10;;;;;;5053475;28;20112;-59
2022/08/09 10:38:38;;;;;;;;;;;26.60;74.90;;;;;;5040515;28;19928;-57
2022/08/09 10:41:25;;;;;;;;;;;26.60;74.70;;;;;;5044732;28;19973;-57
2022/08/09 10:43:54;;;;;;;;;;;26.70;74.30;;;;;;5039348;28;19932;-57
2022/08/09 10:46:37;;;;;;;;;;;26.70;73.70;;;;;;5044734;28;20527;-59
2022/08/09 10:49:23;;;;;;;;;;;26.80;73.50;;;;;;5041290;28;20295;-56
2022/08/09 10:52:29;;;;;;;;;;;26.80;73.50;;;;;;5050278;28;19943;-58
2022/08/09 10:55:01;;;;;;;;;;;26.80;73.70;;;;;;5044452;28;19928;-59
2022/08/09 10:57:34;;;;;;;;;;;26.80;73.90;;;;;;5048770;28;20388;-57
2022/08/09 11:00:24;;;;;;;;;;;26.80;74.10;;;;;;5060504;28;20312;-53
2022/08/09 11:02:52;;;;;;;;;;;26.80;74.20;;;;;;5043029;28;19933;-60
2022/08/09 11:05:39;;;;;;;;;;;26.80;74.30;;;;;;5047935;28;19925;-58
2022/08/09 11:08:40;;;;;;;;;;;26.80;74.50;;;;;;5060718;28;19929;-58
2022/08/09 11:11:17;;;;;;;;;;;26.90;74.60;;;;;;5061969;28;19929;-56
2022/08/09 11:13:45;;;;;;;;;;;26.80;74.60;;;;;;5059620;28;19947;-59
2022/08/09 11:16:29;;;;;;;;;;;26.80;74.70;;;;;;5053298;28;19929;-57
2022/08/09 11:19:05;;;;;;;;;;;26.80;74.70;;;;;;5059308;28;19929;-55
2022/08/09 11:21:53;;;;;;;;;;;26.80;75.40;;;;;;5045430;28;19944;-58
2022/08/09 11:24:50;;;;;;;;;;;26.80;74.90;;;;;;5055471;28;19933;-55
2022/08/09 11:27:26;;;;;;;;;;;26.90;75.10;;;;;;5055791;28;19929;-58
2022/08/09 11:30:14;;;;;;;;;;;26.90;75.20;;;;;;5048426;28;19928;-58
2022/08/09 11:33:06;;;;;;;;;;;26.90;75.30;;;;;;5058024;28;19935;-59
2022/08/09 11:35:38;;;;;;;;;;;26.90;75.40;;;;;;5049614;28;19935;-56
2022/08/09 11:38:26;;;;;;;;;;;26.90;75.40;;;;;;5066543;28;19959;-57
2022/08/09 11:41:15;;;;;;;;;;;26.90;75.50;;;;;;5066924;28;19928;-56
2022/08/09 11:43:47;;;;;;;;;;;26.90;75.50;;;;;;5055196;28;19932;-57
2022/08/09 11:46:15;;;;;;;;;;;26.90;75.60;;;;;;5044575;28;20451;-59
2022/08/09 11:48:56;;;;;;;;;;;26.90;75.60;;;;;;5046288;28;19932;-59
2022/08/09 11:51:24;;;;;;;;;;;26.90;75.60;;;;;;5070368;28;19928;-57
2022/08/09 11:54:18;;;;;;;;;;;26.90;75.60;;;;;;5050812;28;20228;-58
2022/08/09 11:57:18;;;;;;;;;;;26.90;75.70;;;;;;5053602;28;20312;-58
2022/08/09 12:00:09;;;;;;;;;;;26.90;75.60;;;;;;5053154;28;19929;-58
2022/08/09 12:02:43;;;;;;;;;;;26.90;75.60;;;;;;5048783;28;19928;-58
2022/08/09 12:05:19;;;;;;;;;;;26.90;75.70;;;;;;5060542;28;20427;-58
2022/08/09 12:07:50;;;;;;;;;;;26.90;75.70;;;;;;5033481;28;19931;-57
2022/08/09 12:10:23;;;;;;;;;;;26.90;75.80;;;;;;5057498;28;19935;-58
2022/08/09 12:13:05;;;;;;;;;;;27.00;75.80;;;;;;5061036;28;19928;-56
2022/08/09 12:16:03;;;;;;;;;;;27.00;75.80;;;;;;5028996;28;20455;-57
2022/08/09 12:18:46;;;;;;;;;;;27.00;75.80;;;;;;5047158;28;19935;-58
2022/08/09 12:21:39;;;;;;;;;;;27.00;75.80;;;;;;5050833;28;19932;-58
2022/08/09 12:24:22;;;;;;;;;;;27.00;75.80;;;;;;5059582;28;19929;-56
2022/08/09 12:26:51;;;;;;;;;;;27.00;75.80;;;;;;5044372;28;19929;-60
2022/08/09 12:29:38;;;;;;;;;;;27.00;75.80;;;;;;5031723;28;19929;-59
2022/08/09 12:32:24;;;;;;;;;;;27.00;75.80;;;;;;5042864;28;19929;-59
2022/08/09 12:34:58;;;;;;;;;;;27.00;75.80;;;;;;5039853;28;19931;-58
2022/08/09 12:37:32;;;;;;;;;;;27.00;76.30;;;;;;5056754;28;19924;-59
2022/08/09 12:40:17;;;;;;;;;;;27.00;75.80;;;;;;5057518;28;19936;-58
2022/08/09 12:42:45;;;;;;;;;;;27.00;75.70;;;;;;5064780;28;19924;-59
2022/08/09 12:45:17;;;;;;;;;;;27.00;75.70;;;;;;5061392;28;19928;-57
2022/08/09 12:48:07;;;;;;;;;;;27.00;75.70;;;;;;5049013;28;19935;-58
2022/08/09 12:50:55;;;;;;;;;;;27.00;75.60;;;;;;5045574;28;19928;-59
2022/08/09 12:53:26;;;;;;;;;;;27.10;75.70;;;;;;5060863;28;19928;-59
2022/08/09 12:56:04;;;;;;;;;;;27.10;75.70;;;;;;5052045;28;19929;-59
2022/08/09 12:58:40;;;;;;;;;;;27.10;75.60;;;;;;5061864;28;19931;-57
2022/08/09 13:01:22;;;;;;;;;;;27.10;75.60;;;;;;5061951;28;19940;-56
2022/08/09 13:03:57;;;;;;;;;;;27.10;75.50;;;;;;5051664;28;19933;-57
2022/08/09 13:06:29;;;;;;;;;;;27.20;75.60;;;;;;5052652;28;20409;-58
2022/08/09 13:09:01;;;;;;;;;;;27.20;75.50;;;;;;5058140;28;19940;-58
2022/08/09 13:11:33;;;;;;;;;;;27.20;75.50;;;;;;5048961;28;19928;-56
2022/08/09 13:14:09;;;;;;;;;;;27.20;75.50;;;;;;5063946;28;20333;-60
2022/08/09 13:17:00;;;;;;;;;;;27.20;75.40;;;;;;5047976;28;19935;-58
2022/08/09 13:19:29;;;;;;;;;;;27.30;75.50;;;;;;5067570;28;19939;-58
2022/08/09 13:22:22;;;;;;;;;;;27.30;75.50;;;;;;5055516;28;19959;-58
2022/08/09 13:25:09;;;;;;;;;;;27.30;76.00;;;;;;5058643;28;19936;-55
2022/08/09 13:27:40;;;;;;;;;;;27.30;75.40;;;;;;5062270;28;19925;-59
2022/08/09 13:30:22;;;;;;;;;;;27.30;75.30;;;;;;5043842;28;19935;-57
2022/08/09 13:33:11;;;;;;;;;;;27.30;75.30;;;;;;5064563;28;20347;-57
2022/08/09 13:35:46;;;;;;;;;;;27.40;75.30;;;;;;5051883;28;20189;-58
2022/08/09 13:38:33;;;;;;;;;;;27.40;75.30;;;;;;5049319;28;19924;-56
2022/08/09 13:41:20;;;;;;;;;;;27.50;75.30;;;;;;5046155;28;19941;-57
2022/08/09 13:44:08;;;;;;;;;;;27.50;75.30;;;;;;5059263;28;19928;-57
2022/08/09 13:46:42;;;;;;;;;;;27.50;75.20;;;;;;5061884;28;19943;-59
2022/08/09 13:49:29;;;;;;;;;;;27.50;75.20;;;;;;5067397;28;19930;-57
2022/08/09 13:52:16;;;;;;;;;;;27.60;75.30;;;;;;5057505;28;19951;-58
2022/08/09 13:54:44;;;;;;;;;;;27.60;75.20;;;;;;5054969;28;20297;-56
2022/08/09 13:57:31;;;;;;;;;;;27.70;75.20;;;;;;5061514;28;19928;-56
2022/08/09 14:00:09;;;;;;;;;;;27.70;75.10;;;;;;5057781;28;19933;-57
2022/08/09 14:02:42;;;;;;;;;;;27.80;75.20;;;;;;5042041;28;19929;-59
2022/08/09 14:05:29;;;;;;;;;;;27.80;75.10;;;;;;5051384;28;19976;-57
2022/08/09 14:08:17;;;;;;;;;;;27.90;75.20;;;;;;5055026;28;19928;-56
2022/08/09 14:10:46;;;;;;;;;;;27.90;75.10;;;;;;5054561;28;19932;-56
2022/08/09 14:13:22;;;;;;;;;;;27.90;75.10;;;;;;5033428;28;20308;-54
2022/08/09 14:16:13;;;;;;;;;;;28.00;75.10;;;;;;5060865;28;19924;-56
2022/08/09 14:18:42;;;;;;;;;;;28.00;75.10;;;;;;5031590;28;19935;-60
2022/08/09 14:21:18;;;;;;;;;;;28.00;75.10;;;;;;5064421;28;19925;-61
2022/08/09 14:23:48;;;;;;;;;;;28.00;75.10;;;;;;5064192;28;20259;-57
2022/08/09 14:26:27;;;;;;;;;;;28.10;75.10;;;;;;5052617;28;19932;-59
2022/08/09 14:29:00;;;;;;;;;;;28.10;75.10;;;;;;5058672;28;19936;-59
2022/08/09 14:31:27;;;;;;;;;;;28.10;75.10;;;;;;5056224;28;19933;-56
2022/08/09 14:34:02;;;;;;;;;;;28.20;75.00;;;;;;5059668;28;20546;-59
2022/08/09 14:36:34;;;;;;;;;;;28.20;75.00;;;;;;5033873;28;19936;-58
2022/08/09 14:39:09;;;;;;;;;;;28.20;74.90;;;;;;5060619;28;19924;-59
2022/08/09 14:41:36;;;;;;;;;;;28.30;74.90;;;;;;5057771;28;19933;-59
2022/08/09 14:44:08;;;;;;;;;;;28.30;74.90;;;;;;5057415;28;19935;-58
2022/08/09 14:46:38;;;;;;;;;;;28.30;74.90;;;;;;5061936;28;20397;-56
2022/08/09 14:49:25;;;;;;;;;;;28.30;74.90;;;;;;5048713;28;20423;-58
2022/08/09 14:51:53;;;;;;;;;;;28.40;74.90;;;;;;5048543;28;20293;-58
2022/08/09 14:54:25;;;;;;;;;;;28.40;74.80;;;;;;5035855;28;20144;-58
2022/08/09 14:56:54;;;;;;;;;;;28.50;74.70;;;;;;5057093;28;20416;-58
2022/08/09 14:59:25;;;;;;;;;;;28.50;74.70;;;;;;5061703;28;19929;-56
2022/08/09 15:01:53;;;;;;;;;;;28.50;74.70;;;;;;5054736;28;19928;-60
2022/08/09 15:04:20;;;;;;;;;;;28.60;74.60;;;;;;5041651;28;19932;-59
2022/08/09 15:06:50;;;;;;;;;;;28.60;74.60;;;;;;5033127;28;19932;-58
2022/08/09 15:09:18;;;;;;;;;;;28.70;74.60;;;;;;5052748;28;20392;-59